createdAt,value
2019-02-24T00:03:38.721Z,7.22
2019-02-24T00:09:41.033Z,6.12
2019-02-24T00:15:43.342Z,6.33
2019-02-24T00:21:45.726Z,7.00
2019-02-24T00:27:48.196Z,6.90
2019-02-24T00:33:50.585Z,6.30
2019-02-24T00:39:52.873Z,6.70
2019-02-24T00:45:55.035Z,6.55
2019-02-24T00:51:57.465Z,6.03
2019-02-24T00:57:59.824Z,7.05
2019-02-24T01:04:02.085Z,6.22
2019-02-24T01:10:04.728Z,6.03
2019-02-24T01:16:07.105Z,5.67
2019-02-24T01:22:09.309Z,5.65
2019-02-24T01:28:11.714Z,6.12
2019-02-24T01:34:14.169Z,6.08
2019-02-24T01:40:16.617Z,6.28
2019-02-24T01:46:18.809Z,6.20
2019-02-24T01:52:21.138Z,5.28
2019-02-24T01:58:23.329Z,5.50
2019-02-24T02:04:25.680Z,6.22
2019-02-24T02:10:27.884Z,5.67
2019-02-24T02:16:30.202Z,5.42
2019-02-24T02:22:32.639Z,4.92
2019-02-24T02:28:43.593Z,5.40
2019-02-24T02:34:39.160Z,4.92
2019-02-24T02:40:41.535Z,6.03
2019-02-24T02:46:43.757Z,5.22
2019-02-24T02:52:45.962Z,5.37
2019-02-24T02:58:54.305Z,5.90
2019-02-24T03:04:53.192Z,5.53
2019-02-24T03:10:55.509Z,9.03
2019-02-24T03:16:57.800Z,6.30
2019-02-24T03:23:00.180Z,5.90
2019-02-24T03:29:04.345Z,6.33
2019-02-24T03:35:07.737Z,5.42
2019-02-24T03:41:09.916Z,5.87
2019-02-24T03:47:12.093Z,5.87
2019-02-24T03:53:14.550Z,5.78
2019-02-24T03:59:16.784Z,5.62
2019-02-24T04:05:18.981Z,9.38
2019-02-24T04:11:21.166Z,7.40
2019-02-24T04:17:25.496Z,6.37
2019-02-24T04:23:27.670Z,6.03
2019-02-24T04:29:29.839Z,5.95
2019-02-24T04:35:32.018Z,6.20
2019-02-24T04:41:35.039Z,6.05
2019-02-24T04:47:37.455Z,5.90
2019-02-24T04:53:39.592Z,7.67
2019-02-24T04:59:41.774Z,6.28
2019-02-24T05:05:44.176Z,6.20
2019-02-24T05:11:46.767Z,5.75
2019-02-24T05:17:51.091Z,6.55
2019-02-24T05:23:53.310Z,6.85
2019-02-24T05:29:55.466Z,6.60
2019-02-24T05:35:57.648Z,5.62
2019-02-24T05:41:59.868Z,7.17
2019-02-24T05:48:03.364Z,6.30
2019-02-24T05:54:05.535Z,6.58
2019-02-24T06:00:08.283Z,6.33
2019-02-24T06:06:10.600Z,5.65
2019-02-24T06:12:12.823Z,6.28
2019-02-24T06:18:15.096Z,7.15
2019-02-24T06:24:17.478Z,7.22
2019-02-24T06:30:19.724Z,5.97
2019-02-24T06:36:22.042Z,6.03
2019-02-24T06:42:24.323Z,7.22
2019-02-24T06:48:26.642Z,6.50
2019-02-24T06:54:29.255Z,6.50
2019-02-24T07:00:31.676Z,6.15
2019-02-24T07:06:34.096Z,6.97
2019-02-24T07:12:36.468Z,7.05
2019-02-24T07:18:38.811Z,6.70
2019-02-24T07:24:41.040Z,6.65
2019-02-24T07:30:43.369Z,7.55
2019-02-24T07:36:45.591Z,6.53
2019-02-24T07:42:47.997Z,7.72
2019-02-24T07:48:50.339Z,8.13
2019-02-24T07:54:52.600Z,7.87
2019-02-24T08:00:54.884Z,7.90
2019-02-24T08:06:57.495Z,7.97
2019-02-24T08:12:59.834Z,8.60
2019-02-24T08:19:01.997Z,9.20
2019-02-24T08:25:04.267Z,9.45
2019-02-24T08:31:07.515Z,7.90
2019-02-24T08:37:09.744Z,7.87
2019-02-24T08:43:12.930Z,7.90
2019-02-24T08:49:15.281Z,8.43
2019-02-24T08:55:17.543Z,7.90
2019-02-24T09:01:19.914Z,9.85
2019-02-24T09:07:22.169Z,8.73
2019-02-24T09:13:24.344Z,8.50
2019-02-24T09:19:26.573Z,8.63
2019-02-24T09:25:28.872Z,8.90
2019-02-24T09:31:31.099Z,8.50
2019-02-24T09:37:33.379Z,7.75
2019-02-24T09:43:35.711Z,9.10
2019-02-24T09:49:40.031Z,9.18
2019-02-24T09:55:42.309Z,8.05
2019-02-24T10:01:44.559Z,8.65
2019-02-24T10:07:46.923Z,8.68
2019-02-24T10:13:51.154Z,8.05
2019-02-24T10:19:53.264Z,8.10
2019-02-24T10:25:55.412Z,8.65
2019-02-24T10:31:57.585Z,9.25
2019-02-24T10:37:59.748Z,8.00
2019-02-24T10:44:02.067Z,8.48
2019-02-24T10:50:05.912Z,8.70
2019-02-24T10:56:08.456Z,7.90
2019-02-24T11:02:10.848Z,8.53
2019-02-24T11:08:14.273Z,7.35
2019-02-24T11:14:16.598Z,8.83
2019-02-24T11:20:19.016Z,8.05
2019-02-24T11:26:21.203Z,6.92
2019-02-24T11:32:23.390Z,7.87
2019-02-24T11:38:27.664Z,8.70
2019-02-24T11:44:31.290Z,8.60
2019-02-24T11:50:33.490Z,7.53
2019-02-24T11:56:35.768Z,7.67
2019-02-24T12:02:39.089Z,8.05
2019-02-24T12:08:43.681Z,9.23
2019-02-24T12:14:46.987Z,8.18
2019-02-24T12:20:51.284Z,7.37
2019-02-24T12:26:55.477Z,8.03
2019-02-24T12:32:58.708Z,7.42
2019-02-24T12:39:01.043Z,8.23
2019-02-24T12:45:07.152Z,8.68
2019-02-24T12:51:09.491Z,7.37
2019-02-24T12:57:13.851Z,8.38
2019-02-24T13:03:24.080Z,9.55
2019-02-24T13:09:27.790Z,8.58
2019-02-24T13:15:30.101Z,9.58
2019-02-24T13:21:32.896Z,7.58
2019-02-24T13:27:36.133Z,7.75
2019-02-24T13:33:38.647Z,7.92
2019-02-24T13:39:41.049Z,7.90
2019-02-24T13:45:45.815Z,7.03
2019-02-24T13:51:49.331Z,7.85
2019-02-24T13:57:51.451Z,6.90
2019-02-24T14:03:53.567Z,7.55
2019-02-24T14:09:55.905Z,7.22
2019-02-24T14:15:59.483Z,8.45
2019-02-24T14:22:02.825Z,7.47
2019-02-24T14:28:05.133Z,8.63
2019-02-24T14:34:08.514Z,7.92
2019-02-24T14:40:10.862Z,8.20
2019-02-24T14:46:15.990Z,9.00
2019-02-24T14:52:18.617Z,8.08
2019-02-24T14:58:21.971Z,7.55
2019-02-24T15:04:24.462Z,7.45
2019-02-24T15:10:27.887Z,7.65
2019-02-24T15:16:37.225Z,8.35
2019-02-24T15:22:40.358Z,7.50
2019-02-24T15:28:42.722Z,8.63
2019-02-24T15:34:45.054Z,7.40
2019-02-24T15:40:47.990Z,7.33
2019-02-24T15:46:50.611Z,6.80
2019-02-24T15:52:54.400Z,7.17
2019-02-24T15:58:56.748Z,8.80
2019-02-24T16:04:59.992Z,10.05
2019-02-24T16:11:05.090Z,8.70
2019-02-24T16:17:07.275Z,8.08
2019-02-24T16:23:09.569Z,9.80
2019-02-24T16:29:11.956Z,11.60
2019-02-24T16:35:14.173Z,11.25
2019-02-24T16:41:19.336Z,14.23
2019-02-24T16:47:22.731Z,10.15
2019-02-24T16:53:25.107Z,10.65
2019-02-24T16:59:27.660Z,9.33
2019-02-24T17:05:31.287Z,10.30
2019-02-24T17:11:34.816Z,9.83
2019-02-24T17:17:37.036Z,10.38
2019-02-24T17:23:49.549Z,14.13
2019-02-24T17:29:44.573Z,12.47
2019-02-24T17:35:48.931Z,10.75
2019-02-24T17:41:51.121Z,10.43
2019-02-24T17:47:54.367Z,13.38
2019-02-24T17:53:56.781Z,13.22
2019-02-24T17:59:59.059Z,10.88
2019-02-24T18:06:01.381Z,10.10
2019-02-24T18:12:05.873Z,9.23
2019-02-24T18:18:08.173Z,9.65
2019-02-24T18:24:10.801Z,8.85
2019-02-24T18:30:15.774Z,8.88
2019-02-24T18:36:18.363Z,10.18
2019-02-24T18:42:20.735Z,8.80
2019-02-24T18:48:23.103Z,8.93
2019-02-24T18:54:34.342Z,9.60
2019-02-24T19:00:29.551Z,10.38
2019-02-24T19:06:38.911Z,9.40
2019-02-24T19:12:37.926Z,11.70
2019-02-24T19:18:44.746Z,9.65
2019-02-24T19:24:46.775Z,9.40
2019-02-24T19:30:49.293Z,10.32
2019-02-24T19:36:51.663Z,10.70
2019-02-24T19:42:54.531Z,9.10
2019-02-24T19:48:57.047Z,10.15
2019-02-24T19:54:59.316Z,10.72
2019-02-24T20:01:01.585Z,10.95
2019-02-24T20:07:03.991Z,10.03
2019-02-24T20:13:08.351Z,10.72
2019-02-24T20:19:11.389Z,9.55
2019-02-24T20:25:13.639Z,10.45
2019-02-24T20:31:20.390Z,10.90
2019-02-24T20:37:22.875Z,9.95
2019-02-24T20:43:25.842Z,12.03
2019-02-24T20:49:28.262Z,10.82
2019-02-24T20:55:31.451Z,10.13
2019-02-24T21:01:34.051Z,9.48
2019-02-24T21:07:39.534Z,10.00
2019-02-24T21:13:43.813Z,10.48
2019-02-24T21:19:46.115Z,11.33
2019-02-24T21:25:48.502Z,10.45
2019-02-24T21:31:50.745Z,10.55
2019-02-24T21:37:53.025Z,9.53
2019-02-24T21:43:55.348Z,9.00
2019-02-24T21:49:57.646Z,10.45
2019-02-24T21:55:59.900Z,9.28
2019-02-24T22:02:03.342Z,9.38
2019-02-24T22:08:05.582Z,8.30
2019-02-24T22:14:07.970Z,8.20
2019-02-24T22:20:16.478Z,9.15
2019-02-24T22:26:18.767Z,8.80
2019-02-24T22:32:21.081Z,10.20
2019-02-24T22:38:23.310Z,8.80
2019-02-24T22:44:25.682Z,9.80
2019-02-24T22:50:28.157Z,10.35
2019-02-24T22:56:30.415Z,9.93
2019-02-24T23:02:32.672Z,8.63
2019-02-24T23:08:35.125Z,9.35
2019-02-24T23:14:37.336Z,13.88
2019-02-24T23:20:39.768Z,12.05
2019-02-24T23:26:44.163Z,10.60
2019-02-24T23:32:46.384Z,11.97
2019-02-24T23:38:48.803Z,11.55
2019-02-24T23:44:51.027Z,12.45
2019-02-24T23:50:53.335Z,11.22
2019-02-24T23:56:55.972Z,11.88
